Time;durP1;ratioP1;P1;durP2;ratioP2;P2;SDS_P1;SDS_P2;PMS_P1;PMS_P2;Temp;Humidity;BMP_temperature;BMP_pressure;BME280_temperature;BME280_humidity;BME280_pressure;Samples;Min_cycle;Max_cycle;Signal;HPM_P1;HPM_P2
2024/02/04 00:01:38;;;;;;;4.05;2.30;;;;;;;;;;5079077;28;20029;-75
2024/02/04 00:04:03;;;;;;;4.03;2.20;;;;;;;;;;5080166;28;20032;-75
2024/02/04 00:06:29;;;;;;;3.72;2.30;;;;;;;;;;5073070;28;20477;-75
2024/02/04 00:08:54;;;;;;;3.67;1.80;;;;;;;;;;5075536;28;20050;-75
2024/02/04 00:11:19;;;;;;;3.25;1.85;;;;;;;;;;5077732;28;20029;-75
2024/02/04 00:13:44;;;;;;;3.72;1.80;;;;;;;;;;5077803;28;20454;-75
2024/02/04 00:16:09;;;;;;;3.45;1.80;;;;;;;;;;5072504;28;20064;-75
2024/02/04 00:18:34;;;;;;;3.30;1.67;;;;;;;;;;5072579;28;20031;-75
2024/02/04 00:21:00;;;;;;;3.45;1.70;;;;;;;;;;5072374;28;20099;-75
2024/02/04 00:23:25;;;;;;;3.90;1.95;;;;;;;;;;5075654;28;20024;-75
2024/02/04 00:25:50;;;;;;;7.28;2.60;;;;;;;;;;5075468;28;20032;-76
2024/02/04 00:28:15;;;;;;;5.57;2.05;;;;;;;;;;5071602;28;20540;-76
2024/02/04 00:30:40;;;;;;;4.28;2.65;;;;;;;;;;5082450;28;20028;-75
2024/02/04 00:33:06;;;;;;;5.38;2.70;;;;;;;;;;5076489;28;20025;-75
2024/02/04 00:35:31;;;;;;;5.47;2.10;;;;;;;;;;5078853;28;20100;-75
2024/02/04 00:37:57;;;;;;;4.82;2.15;;;;;;;;;;5072319;28;20357;-75
2024/02/04 00:40:22;;;;;;;4.32;2.03;;;;;;;;;;5071758;28;20024;-75
2024/02/04 00:42:47;;;;;;;4.45;1.73;;;;;;;;;;5072013;28;20052;-75
2024/02/04 00:45:12;;;;;;;4.90;2.00;;;;;;;;;;5076187;28;20046;-74
2024/02/04 00:47:37;;;;;;;5.82;1.90;;;;;;;;;;5072175;28;20062;-74
2024/02/04 00:50:03;;;;;;;4.32;1.55;;;;;;;;;;5079879;28;20024;-75
2024/02/04 00:52:28;;;;;;;5.03;1.48;;;;;;;;;;5071983;28;20064;-75
2024/02/04 00:54:53;;;;;;;4.90;2.00;;;;;;;;;;5075904;28;20029;-75
2024/02/04 00:57:18;;;;;;;3.22;1.60;;;;;;;;;;5072038;28;20059;-75
2024/02/04 00:59:44;;;;;;;5.47;1.90;;;;;;;;;;5076820;28;20089;-75
2024/02/04 01:02:09;;;;;;;5.03;2.08;;;;;;;;;;5075965;28;20484;-75
2024/02/04 01:04:34;;;;;;;6.65;2.70;;;;;;;;;;5076434;28;20103;-75
2024/02/04 01:06:59;;;;;;;8.98;3.28;;;;;;;;;;5071574;28;20439;-74
2024/02/04 01:09:24;;;;;;;7.03;3.40;;;;;;;;;;5071328;28;20465;-75
2024/02/04 01:11:50;;;;;;;4.82;2.42;;;;;;;;;;5073583;28;20054;-75
2024/02/04 01:14:15;;;;;;;4.75;2.22;;;;;;;;;;5076974;28;20036;-74
2024/02/04 01:16:40;;;;;;;5.65;1.98;;;;;;;;;;5070909;28;20036;-75
2024/02/04 01:19:05;;;;;;;6.78;2.28;;;;;;;;;;5071970;28;20032;-75
2024/02/04 01:21:30;;;;;;;3.42;2.03;;;;;;;;;;5071103;28;20078;-75
2024/02/04 01:23:55;;;;;;;8.88;2.33;;;;;;;;;;5074073;28;20036;-75
2024/02/04 01:26:23;;;;;;;4.38;2.28;;;;;;;;;;5069815;28;20564;-75
2024/02/04 01:28:48;;;;;;;6.82;2.25;;;;;;;;;;5071472;28;20040;-74
2024/02/04 01:31:13;;;;;;;6.28;2.72;;;;;;;;;;5077782;28;20101;-74
2024/02/04 01:33:38;;;;;;;4.63;2.72;;;;;;;;;;5077906;28;20034;-75
2024/02/04 01:36:04;;;;;;;5.93;2.53;;;;;;;;;;5072698;28;20032;-75
2024/02/04 01:38:29;;;;;;;6.40;3.80;;;;;;;;;;5073609;28;20028;-74
2024/02/04 01:40:54;;;;;;;4.85;2.63;;;;;;;;;;5070604;28;20064;-75
2024/02/04 01:43:21;;;;;;;5.97;2.97;;;;;;;;;;5069781;28;20036;-75
2024/02/04 01:45:46;;;;;;;5.22;2.90;;;;;;;;;;5076957;28;20047;-75
2024/02/04 01:48:14;;;;;;;7.03;2.95;;;;;;;;;;5073785;28;20497;-75
2024/02/04 01:50:40;;;;;;;5.60;3.08;;;;;;;;;;5073226;28;20173;-75
2024/02/04 01:53:05;;;;;;;7.47;3.00;;;;;;;;;;5075175;28;20111;-75
2024/02/04 01:55:31;;;;;;;4.57;2.60;;;;;;;;;;5076081;28;20024;-75
2024/02/04 01:57:56;;;;;;;5.75;2.83;;;;;;;;;;5073284;28;20031;-75
2024/02/04 02:00:21;;;;;;;5.80;3.35;;;;;;;;;;5068837;28;20642;-75
2024/02/04 02:02:48;;;;;;;4.47;2.60;;;;;;;;;;5072034;28;20021;-74
2024/02/04 02:05:13;;;;;;;5.30;2.42;;;;;;;;;;5074612;28;20459;-74
2024/02/04 02:07:39;;;;;;;5.10;2.38;;;;;;;;;;5070737;28;20025;-75
2024/02/04 02:10:07;;;;;;;6.15;2.90;;;;;;;;;;5068738;28;20131;-75
2024/02/04 02:12:39;;;;;;;5.03;2.53;;;;;;;;;;5069097;28;20443;-75
2024/02/04 02:15:14;;;;;;;4.03;2.28;;;;;;;;;;5074184;28;20028;-75
2024/02/04 02:17:49;;;;;;;4.45;2.75;;;;;;;;;;5073059;28;20440;-75
2024/02/04 02:20:21;;;;;;;4.30;2.55;;;;;;;;;;5076684;28;20068;-74
2024/02/04 02:23:01;;;;;;;4.03;2.15;;;;;;;;;;5070362;28;20034;-75
2024/02/04 02:25:26;;;;;;;4.47;2.45;;;;;;;;;;5078274;28;20108;-75
2024/02/04 02:27:51;;;;;;;5.25;2.47;;;;;;;;;;5075905;28;20457;-75
2024/02/04 02:30:17;;;;;;;4.82;2.25;;;;;;;;;;5069397;28;20453;-75
2024/02/04 02:32:43;;;;;;;5.10;2.10;;;;;;;;;;5073119;28;20512;-75
2024/02/04 02:35:08;;;;;;;4.65;2.58;;;;;;;;;;5074859;28;20524;-75
2024/02/04 02:37:41;;;;;;;4.47;2.17;;;;;;;;;;5069016;28;20086;-75
2024/02/04 02:40:10;;;;;;;5.00;2.33;;;;;;;;;;5069838;28;20036;-75
2024/02/04 02:42:37;;;;;;;3.95;2.38;;;;;;;;;;5070515;28;20028;-75
2024/02/04 02:45:03;;;;;;;6.18;2.80;;;;;;;;;;5073907;28;20082;-75
2024/02/04 02:47:29;;;;;;;5.28;2.53;;;;;;;;;;5073753;28;20051;-75
2024/02/04 02:49:54;;;;;;;6.03;2.92;;;;;;;;;;5073923;28;20032;-75
2024/02/04 02:52:20;;;;;;;5.13;2.65;;;;;;;;;;5084843;28;20036;-75
2024/02/04 02:54:45;;;;;;;4.57;2.30;;;;;;;;;;5081868;28;20429;-75
2024/02/04 02:57:10;;;;;;;5.00;2.40;;;;;;;;;;5076371;28;20041;-75
2024/02/04 02:59:35;;;;;;;6.40;2.30;;;;;;;;;;5076034;28;20028;-75
2024/02/04 03:02:00;;;;;;;4.50;2.30;;;;;;;;;;5085429;28;20490;-75
2024/02/04 03:04:26;;;;;;;6.43;2.30;;;;;;;;;;5082100;28;20074;-75
2024/02/04 03:06:51;;;;;;;6.57;3.22;;;;;;;;;;5075343;28;20029;-75
2024/02/04 03:09:16;;;;;;;5.72;2.45;;;;;;;;;;5078739;28;20085;-75
2024/02/04 03:11:42;;;;;;;5.10;2.45;;;;;;;;;;5077358;28;20412;-75
2024/02/04 03:14:08;;;;;;;5.10;3.00;;;;;;;;;;5069459;28;20032;-75
2024/02/04 03:16:33;;;;;;;5.10;3.10;;;;;;;;;;5076506;28;20043;-75
2024/02/04 03:18:58;;;;;;;6.60;3.30;;;;;;;;;;5077156;28;20024;-75
2024/02/04 03:21:23;;;;;;;6.32;2.90;;;;;;;;;;5076000;28;20085;-75
2024/02/04 03:23:49;;;;;;;6.05;3.35;;;;;;;;;;5080219;28;20111;-75
2024/02/04 03:26:18;;;;;;;7.18;3.40;;;;;;;;;;5080555;28;20070;-75
2024/02/04 03:28:44;;;;;;;5.38;3.22;;;;;;;;;;5096335;28;20107;-75
2024/02/04 03:31:09;;;;;;;7.22;4.18;;;;;;;;;;5076594;28;20120;-75
2024/02/04 03:33:35;;;;;;;7.63;4.10;;;;;;;;;;5080984;28;20531;-75
2024/02/04 03:36:00;;;;;;;7.88;3.92;;;;;;;;;;5085991;28;20145;-75
2024/02/04 03:38:26;;;;;;;8.30;3.83;;;;;;;;;;5078549;28;20051;-75
2024/02/04 03:40:52;;;;;;;8.77;4.18;;;;;;;;;;5080405;28;20032;-75
2024/02/04 03:43:17;;;;;;;6.55;3.40;;;;;;;;;;5074170;28;20028;-75
2024/02/04 03:45:42;;;;;;;7.80;3.83;;;;;;;;;;5083402;28;20028;-75
2024/02/04 03:48:07;;;;;;;6.15;3.63;;;;;;;;;;5074898;28;20028;-75
2024/02/04 03:50:33;;;;;;;8.20;3.42;;;;;;;;;;5075589;28;20082;-75
2024/02/04 03:52:58;;;;;;;6.57;3.08;;;;;;;;;;5074806;28;20032;-75
2024/02/04 03:55:25;;;;;;;5.28;2.85;;;;;;;;;;5079410;28;20025;-75
2024/02/04 03:57:51;;;;;;;5.88;3.33;;;;;;;;;;5075042;28;20541;-75
2024/02/04 04:00:16;;;;;;;5.43;3.08;;;;;;;;;;5075377;28;20044;-75
2024/02/04 04:02:41;;;;;;;5.47;3.08;;;;;;;;;;5075190;28;20028;-75
2024/02/04 04:05:10;;;;;;;4.97;2.90;;;;;;;;;;5076682;28;20115;-75
2024/02/04 04:07:35;;;;;;;5.47;2.75;;;;;;;;;;5075578;28;20020;-75
2024/02/04 04:10:00;;;;;;;5.30;3.17;;;;;;;;;;5072240;28;20036;-75
2024/02/04 04:12:26;;;;;;;5.65;3.15;;;;;;;;;;5072538;28;20028;-75
2024/02/04 04:14:51;;;;;;;6.78;3.22;;;;;;;;;;5076251;28;20044;-75
2024/02/04 04:17:16;;;;;;;8.20;3.58;;;;;;;;;;5072938;28;20026;-74
2024/02/04 04:19:42;;;;;;;7.80;3.10;;;;;;;;;;5072222;28;20035;-75
2024/02/04 04:22:07;;;;;;;6.18;3.55;;;;;;;;;;5080417;28;20153;-75
2024/02/04 04:24:32;;;;;;;6.43;3.25;;;;;;;;;;5076551;28;20036;-75
2024/02/04 04:26:57;;;;;;;6.82;3.88;;;;;;;;;;5072311;28;20532;-75
2024/02/04 04:29:22;;;;;;;5.63;3.15;;;;;;;;;;5071752;28;20021;-76
2024/02/04 04:31:48;;;;;;;6.43;3.08;;;;;;;;;;5073985;28;20459;-75
2024/02/04 04:34:13;;;;;;;6.40;3.05;;;;;;;;;;5078203;28;20526;-75
2024/02/04 04:36:38;;;;;;;6.20;3.03;;;;;;;;;;5074652;28;20047;-75
2024/02/04 04:39:03;;;;;;;7.80;4.07;;;;;;;;;;5072111;28;20041;-75
2024/02/04 04:41:29;;;;;;;6.07;3.65;;;;;;;;;;5071798;28;20056;-75
2024/02/04 04:43:54;;;;;;;6.35;3.25;;;;;;;;;;5074902;28;20032;-75
2024/02/04 04:46:19;;;;;;;6.28;3.70;;;;;;;;;;5072831;28;20033;-76
2024/02/04 04:48:44;;;;;;;6.93;3.75;;;;;;;;;;5072038;28;20035;-76
2024/02/04 04:51:11;;;;;;;6.43;3.42;;;;;;;;;;5071552;28;20099;-76
2024/02/04 04:53:36;;;;;;;7.47;3.92;;;;;;;;;;5076479;28;20020;-76
2024/02/04 04:56:01;;;;;;;6.40;4.07;;;;;;;;;;5076366;28;20496;-75
2024/02/04 04:58:26;;;;;;;9.45;4.43;;;;;;;;;;5071789;28;20107;-75
2024/02/04 05:00:51;;;;;;;7.20;3.97;;;;;;;;;;5079219;28;20040;-76
2024/02/04 05:03:17;;;;;;;8.18;4.30;;;;;;;;;;5074557;28;20039;-76
2024/02/04 05:05:42;;;;;;;7.95;5.20;;;;;;;;;;5080998;28;20028;-76
2024/02/04 05:08:07;;;;;;;7.30;5.18;;;;;;;;;;5074310;28;20097;-75
2024/02/04 05:10:32;;;;;;;10.43;4.95;;;;;;;;;;5071227;28;20029;-75
2024/02/04 05:12:57;;;;;;;8.33;4.70;;;;;;;;;;5074523;28;20032;-76
2024/02/04 05:15:24;;;;;;;8.40;4.65;;;;;;;;;;5078455;28;20737;-76
2024/02/04 05:17:50;;;;;;;9.70;5.30;;;;;;;;;;5073033;28;20485;-76
2024/02/04 05:20:15;;;;;;;9.18;5.45;;;;;;;;;;5070837;28;20047;-76
2024/02/04 05:22:40;;;;;;;8.00;5.70;;;;;;;;;;5074557;28;20112;-76
2024/02/04 05:25:06;;;;;;;10.13;5.95;;;;;;;;;;5075408;28;20040;-76
2024/02/04 05:27:31;;;;;;;9.52;6.10;;;;;;;;;;5070872;28;20139;-76
2024/02/04 05:29:56;;;;;;;9.25;5.28;;;;;;;;;;5070665;28;20031;-75
2024/02/04 05:32:21;;;;;;;9.30;5.80;;;;;;;;;;5074440;28;20070;-75
2024/02/04 05:34:47;;;;;;;10.95;6.78;;;;;;;;;;5074596;28;20044;-75
2024/02/04 05:37:12;;;;;;;9.55;5.50;;;;;;;;;;5070916;28;20058;-75
2024/02/04 05:39:37;;;;;;;10.00;5.53;;;;;;;;;;5070687;28;20056;-75
2024/02/04 05:42:02;;;;;;;9.00;6.28;;;;;;;;;;5070974;28;20693;-75
2024/02/04 05:44:27;;;;;;;11.60;7.35;;;;;;;;;;5074012;28;20060;-76
2024/02/04 05:46:53;;;;;;;12.63;6.63;;;;;;;;;;5070063;28;20032;-76
2024/02/04 05:49:18;;;;;;;11.90;5.50;;;;;;;;;;5081192;28;20035;-75
2024/02/04 05:51:43;;;;;;;8.18;4.50;;;;;;;;;;5075002;28;20115;-75
2024/02/04 05:54:08;;;;;;;8.65;4.13;;;;;;;;;;5075276;28;20036;-75
2024/02/04 05:56:34;;;;;;;9.18;5.13;;;;;;;;;;5081975;28;20036;-76
2024/02/04 05:58:59;;;;;;;7.25;4.50;;;;;;;;;;5069205;28;20686;-75
2024/02/04 06:01:24;;;;;;;7.93;4.57;;;;;;;;;;5070129;28;20149;-76
2024/02/04 06:03:49;;;;;;;8.65;4.88;;;;;;;;;;5073749;28;20059;-76
2024/02/04 06:06:15;;;;;;;9.15;5.15;;;;;;;;;;5072107;28;20687;-75
2024/02/04 06:08:41;;;;;;;10.85;5.95;;;;;;;;;;5070517;28;20070;-76
2024/02/04 06:11:09;;;;;;;8.52;5.07;;;;;;;;;;5071252;28;20160;-76
2024/02/04 06:13:34;;;;;;;8.32;5.25;;;;;;;;;;5087977;28;20400;-75
2024/02/04 06:15:59;;;;;;;9.63;5.35;;;;;;;;;;5078133;28;20043;-76
2024/02/04 06:18:24;;;;;;;8.30;5.22;;;;;;;;;;5079636;28;20058;-76
2024/02/04 06:20:49;;;;;;;8.93;5.65;;;;;;;;;;5081043;28;20051;-76
2024/02/04 06:23:15;;;;;;;8.20;5.00;;;;;;;;;;5078808;28;20031;-76
2024/02/04 06:25:40;;;;;;;5.93;3.85;;;;;;;;;;5081868;28;20035;-76
2024/02/04 06:28:06;;;;;;;8.02;4.93;;;;;;;;;;5085694;28;20032;-75
2024/02/04 06:30:31;;;;;;;7.53;4.50;;;;;;;;;;5075448;28;20294;-76
2024/02/04 06:32:57;;;;;;;8.98;5.15;;;;;;;;;;5076228;28;20111;-75
2024/02/04 06:35:22;;;;;;;7.93;4.43;;;;;;;;;;5075172;28;20526;-76
2024/02/04 06:37:47;;;;;;;9.65;5.32;;;;;;;;;;5079625;28;20085;-75
2024/02/04 06:40:12;;;;;;;10.82;4.65;;;;;;;;;;5070722;28;20403;-75
2024/02/04 06:42:38;;;;;;;8.35;4.40;;;;;;;;;;5071250;28;20070;-76
2024/02/04 06:45:03;;;;;;;9.32;5.35;;;;;;;;;;5077416;28;20680;-76
2024/02/04 06:47:29;;;;;;;11.35;6.00;;;;;;;;;;5071231;28;20028;-75
2024/02/04 06:49:54;;;;;;;11.50;5.03;;;;;;;;;;5076630;28;20095;-75
2024/02/04 06:52:19;;;;;;;8.00;4.15;;;;;;;;;;5070760;28;20055;-75
2024/02/04 06:54:44;;;;;;;7.80;4.43;;;;;;;;;;5069614;28;20489;-75
2024/02/04 06:57:10;;;;;;;11.35;6.10;;;;;;;;;;5072759;28;20043;-75
2024/02/04 06:59:35;;;;;;;7.78;4.43;;;;;;;;;;5069466;28;20036;-75
2024/02/04 07:02:00;;;;;;;7.53;4.68;;;;;;;;;;5072979;28;20028;-75
2024/02/04 07:04:25;;;;;;;8.85;5.05;;;;;;;;;;5070190;28;20032;-75
2024/02/04 07:06:53;;;;;;;7.63;4.70;;;;;;;;;;5073748;28;20029;-75
2024/02/04 07:09:18;;;;;;;8.10;5.10;;;;;;;;;;5071087;28;20035;-75
2024/02/04 07:11:43;;;;;;;8.13;4.15;;;;;;;;;;5075913;28;20048;-76
2024/02/04 07:14:09;;;;;;;7.45;4.40;;;;;;;;;;5069254;28;20035;-76
2024/02/04 07:16:34;;;;;;;6.47;3.78;;;;;;;;;;5070757;28;20099;-76
2024/02/04 07:18:59;;;;;;;7.60;4.55;;;;;;;;;;5076055;28;20455;-75
2024/02/04 07:21:24;;;;;;;6.63;3.78;;;;;;;;;;5069178;28;20522;-75
2024/02/04 07:23:49;;;;;;;6.47;3.90;;;;;;;;;;5080928;28;20031;-75
2024/02/04 07:26:14;;;;;;;8.05;3.22;;;;;;;;;;5082585;28;20048;-75
2024/02/04 07:28:40;;;;;;;6.10;3.78;;;;;;;;;;5082666;28;20397;-75
2024/02/04 07:31:05;;;;;;;6.25;4.15;;;;;;;;;;5085679;28;20077;-75
2024/02/04 07:33:30;;;;;;;7.88;4.30;;;;;;;;;;5085685;28;20065;-75
2024/02/04 07:35:56;;;;;;;6.50;3.80;;;;;;;;;;5088829;28;20461;-75
2024/02/04 07:38:21;;;;;;;8.30;3.70;;;;;;;;;;5089337;28;20137;-75
2024/02/04 07:40:46;;;;;;;6.60;3.00;;;;;;;;;;5087478;28;20032;-75
2024/02/04 07:43:11;;;;;;;8.32;3.65;;;;;;;;;;5082966;28;20028;-75
2024/02/04 07:45:37;;;;;;;6.38;3.67;;;;;;;;;;5089475;28;20039;-74
2024/02/04 07:48:03;;;;;;;6.25;4.03;;;;;;;;;;5092470;28;20051;-75
2024/02/04 07:50:28;;;;;;;7.53;3.35;;;;;;;;;;5089857;28;20032;-75
2024/02/04 07:52:53;;;;;;;6.20;3.72;;;;;;;;;;5089418;28;20091;-74
2024/02/04 07:55:18;;;;;;;6.35;3.38;;;;;;;;;;5080728;28;20497;-76
2024/02/04 07:57:43;;;;;;;5.45;3.15;;;;;;;;;;5072102;28;20550;-75
2024/02/04 08:00:12;;;;;;;6.25;3.25;;;;;;;;;;5072387;28;20037;-77
2024/02/04 08:02:37;;;;;;;10.30;5.40;;;;;;;;;;5077022;28;20115;-77
2024/02/04 08:05:03;;;;;;;7.43;3.58;;;;;;;;;;5074123;28;20732;-76
2024/02/04 08:07:28;;;;;;;9.20;4.22;;;;;;;;;;5074635;28;20036;-75
2024/02/04 08:09:54;;;;;;;6.03;4.13;;;;;;;;;;5072348;28;20033;-75
2024/02/04 08:12:19;;;;;;;5.20;3.28;;;;;;;;;;5072701;28;20032;-74
2024/02/04 08:14:44;;;;;;;5.85;3.33;;;;;;;;;;5072529;28;20028;-75
2024/02/04 08:17:09;;;;;;;4.35;2.72;;;;;;;;;;5084238;28;20031;-74
2024/02/04 08:19:35;;;;;;;5.55;2.30;;;;;;;;;;5072336;28;20032;-75
2024/02/04 08:22:00;;;;;;;5.07;2.25;;;;;;;;;;5072648;28;20102;-75
2024/02/04 08:24:25;;;;;;;3.10;1.95;;;;;;;;;;5072156;28;20047;-75
2024/02/04 08:26:51;;;;;;;4.38;2.30;;;;;;;;;;5076546;28;20039;-75
2024/02/04 08:29:16;;;;;;;2.65;1.40;;;;;;;;;;5072209;28;20024;-74
2024/02/04 08:31:41;;;;;;;2.38;1.30;;;;;;;;;;5072533;28;20109;-75
2024/02/04 08:34:07;;;;;;;2.92;1.40;;;;;;;;;;5075621;28;20052;-74
2024/02/04 08:36:32;;;;;;;4.00;1.33;;;;;;;;;;5079880;28;20063;-74
2024/02/04 08:38:57;;;;;;;4.65;2.00;;;;;;;;;;5073846;28;20044;-74
2024/02/04 08:41:22;;;;;;;2.90;1.50;;;;;;;;;;5072004;28;20404;-74
2024/02/04 08:43:47;;;;;;;3.08;1.48;;;;;;;;;;5071905;28;20040;-74
2024/02/04 08:46:13;;;;;;;3.42;1.40;;;;;;;;;;5072499;28;20032;-74
2024/02/04 08:48:38;;;;;;;2.90;1.20;;;;;;;;;;5076770;28;20481;-75
2024/02/04 08:51:03;;;;;;;3.00;1.50;;;;;;;;;;5080283;28;20025;-75
2024/02/04 08:53:28;;;;;;;4.03;1.80;;;;;;;;;;5071448;28;20028;-75
2024/02/04 08:55:53;;;;;;;4.88;1.90;;;;;;;;;;5072209;28;20032;-75
2024/02/04 08:58:19;;;;;;;3.15;1.38;;;;;;;;;;5078656;28;20115;-74
2024/02/04 09:00:44;;;;;;;3.00;1.42;;;;;;;;;;5073682;28;20024;-74
2024/02/04 09:03:09;;;;;;;3.00;1.45;;;;;;;;;;5075365;28;20119;-74
2024/02/04 09:05:34;;;;;;;3.38;1.90;;;;;;;;;;5071813;28;20024;-74
2024/02/04 09:08:00;;;;;;;3.45;1.75;;;;;;;;;;5079766;28;20400;-74
2024/02/04 09:10:25;;;;;;;3.53;1.60;;;;;;;;;;5073685;28;20032;-75
2024/02/04 09:12:50;;;;;;;2.90;1.63;;;;;;;;;;5071548;28;20032;-74
2024/02/04 09:15:15;;;;;;;3.15;1.52;;;;;;;;;;5081263;28;20044;-74
2024/02/04 09:17:40;;;;;;;4.53;1.45;;;;;;;;;;5076374;28;20028;-74
2024/02/04 09:20:07;;;;;;;3.28;1.50;;;;;;;;;;5078138;28;20508;-74
2024/02/04 09:22:32;;;;;;;3.05;1.45;;;;;;;;;;5070887;28;20036;-74
2024/02/04 09:24:58;;;;;;;2.97;1.50;;;;;;;;;;5071201;28;20082;-74
2024/02/04 09:27:23;;;;;;;2.45;1.15;;;;;;;;;;5076909;28;20080;-74
2024/02/04 09:29:48;;;;;;;4.07;1.85;;;;;;;;;;5070794;28;20033;-74
2024/02/04 09:32:13;;;;;;;2.95;1.30;;;;;;;;;;5075082;28;20404;-75
2024/02/04 09:34:38;;;;;;;3.92;1.58;;;;;;;;;;5070895;28;20025;-74
2024/02/04 09:37:04;;;;;;;3.63;1.75;;;;;;;;;;5078248;28;20035;-74
2024/02/04 09:39:29;;;;;;;3.53;1.50;;;;;;;;;;5070589;28;20071;-74
2024/02/04 09:41:55;;;;;;;2.58;1.40;;;;;;;;;;5069739;28;20036;-74
2024/02/04 09:44:21;;;;;;;2.85;1.20;;;;;;;;;;5070277;28;20068;-74
2024/02/04 09:46:46;;;;;;;3.70;1.25;;;;;;;;;;5075150;28;20040;-74
2024/02/04 09:49:12;;;;;;;2.58;1.20;;;;;;;;;;5073750;28;20075;-74
2024/02/04 09:51:39;;;;;;;1.80;0.80;;;;;;;;;;5070739;28;20020;-75
2024/02/04 09:54:06;;;;;;;1.80;0.90;;;;;;;;;;5070309;28;20037;-74
2024/02/04 09:56:32;;;;;;;2.63;0.98;;;;;;;;;;5071328;28;20039;-74
2024/02/04 09:58:57;;;;;;;2.17;1.10;;;;;;;;;;5078788;28;20043;-74
2024/02/04 10:01:23;;;;;;;2.28;0.95;;;;;;;;;;5073645;28;20028;-74
2024/02/04 10:03:48;;;;;;;2.15;0.80;;;;;;;;;;5077619;28;20656;-74
2024/02/04 10:06:13;;;;;;;1.70;0.90;;;;;;;;;;5072779;28;20035;-74
2024/02/04 10:08:38;;;;;;;2.08;0.77;;;;;;;;;;5075331;28;20025;-74
2024/02/04 10:11:04;;;;;;;2.30;1.00;;;;;;;;;;5073547;28;20712;-75
2024/02/04 10:13:29;;;;;;;2.35;1.02;;;;;;;;;;5076586;28;20025;-74
2024/02/04 10:15:54;;;;;;;2.30;1.10;;;;;;;;;;5070453;28;20024;-77
2024/02/04 10:18:20;;;;;;;1.90;1.00;;;;;;;;;;5077235;28;20499;-74
2024/02/04 10:20:45;;;;;;;2.70;0.90;;;;;;;;;;5069981;28;20047;-74
2024/02/04 10:23:10;;;;;;;2.97;1.00;;;;;;;;;;5075154;28;20032;-74
2024/02/04 10:25:35;;;;;;;2.95;1.05;;;;;;;;;;5074171;28;20659;-73
2024/02/04 10:28:01;;;;;;;2.35;0.85;;;;;;;;;;5076964;28;20040;-74
2024/02/04 10:30:26;;;;;;;2.85;0.80;;;;;;;;;;5069421;28;20025;-74
2024/02/04 10:32:52;;;;;;;2.83;1.10;;;;;;;;;;5074549;28;20356;-73
2024/02/04 10:35:22;;;;;;;2.22;1.00;;;;;;;;;;5074369;28;20036;-73
2024/02/04 10:37:47;;;;;;;3.22;0.90;;;;;;;;;;5078498;28;20051;-73
2024/02/04 10:40:13;;;;;;;2.70;0.95;;;;;;;;;;5071244;28;20033;-74
2024/02/04 10:42:41;;;;;;;2.33;1.02;;;;;;;;;;5069871;28;20036;-74
2024/02/04 10:45:07;;;;;;;2.50;0.93;;;;;;;;;;5086854;28;20096;-73
2024/02/04 10:47:36;;;;;;;4.70;1.50;;;;;;;;;;5075503;28;20024;-73
2024/02/04 10:50:03;;;;;;;2.47;1.17;;;;;;;;;;5080536;28;20028;-74
2024/02/04 10:52:28;;;;;;;3.13;0.75;;;;;;;;;;5069661;28;20037;-73
2024/02/04 10:54:55;;;;;;;2.50;1.10;;;;;;;;;;5069601;28;20043;-74
2024/02/04 10:57:26;;;;;;;2.17;0.90;;;;;;;;;;5074287;28;20107;-74
2024/02/04 10:59:51;;;;;;;2.67;1.42;;;;;;;;;;5072511;28;20400;-74
2024/02/04 11:02:17;;;;;;;2.72;1.33;;;;;;;;;;5083683;28;20035;-76
2024/02/04 11:04:43;;;;;;;4.30;1.40;;;;;;;;;;5071370;28;20607;-76
2024/02/04 11:07:10;;;;;;;2.25;1.20;;;;;;;;;;5080091;28;20028;-76
2024/02/04 11:09:36;;;;;;;1.55;0.70;;;;;;;;;;5069510;28;20029;-76
2024/02/04 11:12:03;;;;;;;4.05;0.82;;;;;;;;;;5072505;28;20488;-77
2024/02/04 11:14:29;;;;;;;1.55;0.80;;;;;;;;;;5073469;28;20074;-77
2024/02/04 11:17:13;;;;;;;2.78;0.90;;;;;;;;;;5077830;28;20035;-78
2024/02/04 11:19:57;;;;;;;2.50;1.08;;;;;;;;;;5082799;28;20082;-77
2024/02/04 11:22:41;;;;;;;3.17;1.10;;;;;;;;;;5074695;28;20109;-77
2024/02/04 11:25:18;;;;;;;2.97;1.30;;;;;;;;;;5075304;28;20032;-77
2024/02/04 11:27:44;;;;;;;2.25;1.10;;;;;;;;;;5083371;28;20404;-77
2024/02/04 11:30:09;;;;;;;2.45;1.10;;;;;;;;;;5071757;28;20037;-77
2024/02/04 11:32:35;;;;;;;3.55;1.00;;;;;;;;;;5078276;28;20067;-77
2024/02/04 11:35:02;;;;;;;2.47;1.05;;;;;;;;;;5074257;28;20032;-77
2024/02/04 11:37:27;;;;;;;1.83;0.88;;;;;;;;;;5079211;28;20373;-77
2024/02/04 11:39:53;;;;;;;1.50;0.70;;;;;;;;;;5073187;28;20036;-78
2024/02/04 11:42:20;;;;;;;1.52;0.77;;;;;;;;;;5073647;28;20504;-78
2024/02/04 11:44:45;;;;;;;2.00;0.80;;;;;;;;;;5072891;28;20048;-78
2024/02/04 11:47:10;;;;;;;2.28;0.95;;;;;;;;;;5079373;28;20107;-78
2024/02/04 11:49:35;;;;;;;2.03;1.05;;;;;;;;;;5077057;28;20169;-78
2024/02/04 11:52:01;;;;;;;2.17;1.05;;;;;;;;;;5073261;28;20035;-78
2024/02/04 11:54:26;;;;;;;2.63;1.40;;;;;;;;;;5072669;28;20115;-77
2024/02/04 11:56:53;;;;;;;4.18;1.25;;;;;;;;;;5076352;28;20043;-77
2024/02/04 11:59:19;;;;;;;2.78;1.50;;;;;;;;;;5076391;28;20070;-77
2024/02/04 12:01:44;;;;;;;3.92;1.90;;;;;;;;;;5073287;28;20044;-77
2024/02/04 12:04:10;;;;;;;3.38;1.42;;;;;;;;;;5076236;28;20028;-76
2024/02/04 12:06:36;;;;;;;7.05;1.50;;;;;;;;;;5073804;28;20040;-76
2024/02/04 12:09:01;;;;;;;3.85;1.40;;;;;;;;;;5077788;28;20035;-76
2024/02/04 12:11:27;;;;;;;2.50;1.00;;;;;;;;;;5072252;28;20024;-76
2024/02/04 12:13:52;;;;;;;1.55;0.68;;;;;;;;;;5072414;28;20676;-76
2024/02/04 12:16:18;;;;;;;2.95;1.17;;;;;;;;;;5071264;28;20067;-76
2024/02/04 12:18:49;;;;;;;2.10;1.00;;;;;;;;;;5085222;28;20052;-76
2024/02/04 12:21:15;;;;;;;5.28;1.00;;;;;;;;;;5072194;28;20032;-76
2024/02/04 12:23:40;;;;;;;2.95;1.10;;;;;;;;;;5071166;28;20029;-76
2024/02/04 12:26:05;;;;;;;3.47;1.25;;;;;;;;;;5072629;28;20024;-76
2024/02/04 12:28:30;;;;;;;4.57;0.90;;;;;;;;;;5077770;28;20056;-76
2024/02/04 12:30:58;;;;;;;2.80;1.10;;;;;;;;;;5072025;28;20480;-76
2024/02/04 12:33:23;;;;;;;5.85;1.52;;;;;;;;;;5076758;28;20036;-76
2024/02/04 12:35:52;;;;;;;3.55;1.20;;;;;;;;;;5072409;28;20047;-76
2024/02/04 12:38:17;;;;;;;4.97;1.25;;;;;;;;;;5077042;28;20032;-76
2024/02/04 12:40:42;;;;;;;3.08;1.05;;;;;;;;;;5071987;28;20638;-76
2024/02/04 12:43:10;;;;;;;3.35;1.05;;;;;;;;;;5071960;28;20124;-75
2024/02/04 12:45:35;;;;;;;3.80;1.20;;;;;;;;;;5078627;28;20043;-76
2024/02/04 12:48:01;;;;;;;3.97;1.48;;;;;;;;;;5077155;28;20028;-76
2024/02/04 12:50:26;;;;;;;5.07;1.10;;;;;;;;;;5071715;28;20021;-76
2024/02/04 12:53:02;;;;;;;3.50;1.00;;;;;;;;;;5071823;28;20802;-75
2024/02/04 12:55:28;;;;;;;4.40;1.05;;;;;;;;;;5071650;28;20036;-76
2024/02/04 12:58:06;;;;;;;2.78;0.98;;;;;;;;;;5077309;28;20043;-76
2024/02/04 13:00:35;;;;;;;4.05;1.20;;;;;;;;;;5077955;28;20531;-76
2024/02/04 13:03:01;;;;;;;2.63;1.15;;;;;;;;;;5076539;28;20032;-76
2024/02/04 13:05:26;;;;;;;6.20;1.52;;;;;;;;;;5071407;28;20028;-76
2024/02/04 13:07:55;;;;;;;3.38;1.02;;;;;;;;;;5076398;28;20072;-76
2024/02/04 13:10:27;;;;;;;3.90;1.10;;;;;;;;;;5071271;28;20063;-76
2024/02/04 13:13:20;;;;;;;3.67;1.35;;;;;;;;;;5075175;28;20079;-76
2024/02/04 13:15:45;;;;;;;;;;;;;;;;;;5073315;28;20531;-76
2024/02/04 13:18:16;;;;;;;3.97;0.90;;;;;;;;;;5076175;28;20415;-76
2024/02/04 13:20:42;;;;;;;2.92;0.70;;;;;;;;;;5075165;28;20864;-76
2024/02/04 13:23:07;;;;;;;3.88;0.90;;;;;;;;;;5072861;28;20032;-76
2024/02/04 13:25:33;;;;;;;3.50;0.80;;;;;;;;;;5071215;28;20519;-76
2024/02/04 13:27:58;;;;;;;6.00;1.02;;;;;;;;;;5075668;28;20141;-76
2024/02/04 13:30:23;;;;;;;3.85;0.50;;;;;;;;;;5070477;28;20559;-76
2024/02/04 13:32:50;;;;;;;5.15;0.90;;;;;;;;;;5075421;28;20043;-76
2024/02/04 13:35:16;;;;;;;4.07;0.80;;;;;;;;;;5070646;28;20037;-76
2024/02/04 13:37:46;;;;;;;2.65;0.57;;;;;;;;;;5075517;28;20036;-76
2024/02/04 13:40:13;;;;;;;3.20;0.90;;;;;;;;;;5071173;28;20573;-76
2024/02/04 13:42:38;;;;;;;4.25;1.10;;;;;;;;;;5074956;28;20039;-76
2024/02/04 13:45:04;;;;;;;5.20;0.73;;;;;;;;;;5070508;28;20036;-76
2024/02/04 13:47:29;;;;;;;4.80;0.90;;;;;;;;;;5075190;28;20104;-76
2024/02/04 13:49:55;;;;;;;3.63;0.77;;;;;;;;;;5073395;28;20079;-76
2024/02/04 13:52:21;;;;;;;2.65;1.00;;;;;;;;;;5070652;28;20420;-76
2024/02/04 13:54:46;;;;;;;3.47;0.70;;;;;;;;;;5070539;28;20025;-76
2024/02/04 13:57:11;;;;;;;3.90;0.70;;;;;;;;;;5074506;28;20063;-76
2024/02/04 13:59:36;;;;;;;3.42;1.08;;;;;;;;;;5070344;28;20030;-76
2024/02/04 14:02:02;;;;;;;4.15;0.90;;;;;;;;;;5076410;28;20113;-76
2024/02/04 14:04:27;;;;;;;2.90;0.90;;;;;;;;;;5070878;28;20056;-76
2024/02/04 14:06:52;;;;;;;2.72;0.85;;;;;;;;;;5071642;28;20459;-76
2024/02/04 14:09:17;;;;;;;2.45;0.70;;;;;;;;;;5073498;28;20028;-76
2024/02/04 14:11:42;;;;;;;4.20;1.15;;;;;;;;;;5072921;28;20445;-76
2024/02/04 14:14:08;;;;;;;2.50;0.80;;;;;;;;;;5082860;28;20044;-77
2024/02/04 14:16:33;;;;;;;2.92;1.10;;;;;;;;;;5085660;28;20044;-76
2024/02/04 14:18:58;;;;;;;4.87;1.10;;;;;;;;;;5084050;28;20075;-77
2024/02/04 14:21:23;;;;;;;3.45;0.82;;;;;;;;;;5080959;28;20277;-76
2024/02/04 14:23:48;;;;;;;2.55;0.98;;;;;;;;;;5079731;28;20027;-77
2024/02/04 14:26:20;;;;;;;4.60;0.90;;;;;;;;;;5081752;28;20033;-78
2024/02/04 14:28:45;;;;;;;3.42;0.60;;;;;;;;;;5086681;28;20061;-77
2024/02/04 14:31:11;;;;;;;4.97;0.90;;;;;;;;;;5085796;28;20016;-77
2024/02/04 14:33:36;;;;;;;4.67;0.83;;;;;;;;;;5084945;28;20028;-77
2024/02/04 14:36:01;;;;;;;3.00;0.80;;;;;;;;;;5090018;28;20265;-76